Time;durP1;ratioP1;P1;durP2;ratioP2;P2;SDS_P1;SDS_P2;PMS_P1;PMS_P2;Temp;Humidity;BMP_temperature;BMP_pressure;BME280_temperature;BME280_humidity;BME280_pressure;Samples;Min_cycle;Max_cycle;Signal;HPM_P1;HPM_P2
2023/05/21 00:02:03;;;;;;;4.15;3.45;;;;;;;12.84;73.22;101733.38;5031797;28;20052;-69
2023/05/21 00:04:30;;;;;;;5.68;3.40;;;;;;;12.80;73.72;101729.97;5031181;28;20120;-69
2023/05/21 00:06:57;;;;;;;5.00;3.80;;;;;;;12.75;75.17;101729.41;5030919;28;20424;-69
2023/05/21 00:09:23;;;;;;;4.95;3.13;;;;;;;12.71;73.72;101725.13;5030982;28;20041;-69
2023/05/21 00:11:48;;;;;;;6.32;4.05;;;;;;;12.70;74.15;101726.09;5036330;28;20083;-69
2023/05/21 00:14:13;;;;;;;8.73;3.83;;;;;;;12.68;73.33;101728.03;5045220;28;20401;-69
2023/05/21 00:16:39;;;;;;;6.18;3.55;;;;;;;12.63;73.32;101720.16;5031784;28;20106;-69
2023/05/21 00:19:05;;;;;;;5.38;3.50;;;;;;;12.58;74.11;101713.28;5029838;28;20397;-70
2023/05/21 00:21:30;;;;;;;6.55;3.63;;;;;;;12.54;74.89;101712.59;5030986;28;20038;-69
2023/05/21 00:23:56;;;;;;;6.50;3.65;;;;;;;12.52;74.41;101714.56;5030897;28;20496;-69
2023/05/21 00:26:22;;;;;;;4.55;3.70;;;;;;;12.50;74.82;101711.94;5029690;28;20128;-69
2023/05/21 00:28:51;;;;;;;8.30;3.53;;;;;;;12.48;75.37;101711.16;5030599;28;20128;-69
2023/05/21 00:31:16;;;;;;;5.53;3.58;;;;;;;12.44;76.03;101716.91;5031333;28;20150;-69
2023/05/21 00:33:42;;;;;;;9.75;4.22;;;;;;;12.39;76.50;101722.69;5012848;28;20350;-69
2023/05/21 00:36:07;;;;;;;4.65;3.50;;;;;;;12.32;76.86;101717.75;5013473;28;20084;-69
2023/05/21 00:38:33;;;;;;;3.88;3.10;;;;;;;12.28;77.44;101717.06;5041525;28;20151;-69
2023/05/21 00:41:01;;;;;;;5.28;3.50;;;;;;;12.24;76.22;101707.31;5049515;28;20037;-69
2023/05/21 00:43:26;;;;;;;5.03;3.55;;;;;;;12.20;76.80;101705.78;5049297;28;20131;-69
2023/05/21 00:45:52;;;;;;;4.88;3.80;;;;;;;12.19;77.12;101707.63;5032615;28;20041;-70
2023/05/21 00:48:19;;;;;;;6.00;3.35;;;;;;;12.13;76.95;101708.03;5030842;28;20432;-70
2023/05/21 00:50:45;;;;;;;7.20;3.85;;;;;;;12.11;77.10;101696.34;5028912;28;20397;-69
2023/05/21 00:53:14;;;;;;;5.25;3.63;;;;;;;12.07;77.86;101702.97;5030705;28;20028;-69
2023/05/21 00:55:39;;;;;;;4.45;3.30;;;;;;;12.02;77.70;101702.38;5029469;28;20100;-69
2023/05/21 00:58:06;;;;;;;4.35;3.65;;;;;;;11.99;78.15;101703.47;5024086;28;20827;-68
2023/05/21 01:00:33;;;;;;;4.72;3.53;;;;;;;11.96;78.27;101700.06;5028163;28;20047;-69
2023/05/21 01:02:59;;;;;;;5.95;3.42;;;;;;;11.92;78.70;101702.09;5034068;28;20132;-69
2023/05/21 01:05:27;;;;;;;5.13;3.85;;;;;;;11.90;78.59;101697.75;5037505;28;20022;-70
2023/05/21 01:07:52;;;;;;;5.75;3.75;;;;;;;11.86;79.13;101702.50;5026050;28;20403;-70
2023/05/21 01:10:18;;;;;;;5.45;3.72;;;;;;;11.84;79.20;101700.84;5026591;28;20029;-70
2023/05/21 01:12:44;;;;;;;4.63;3.83;;;;;;;11.83;78.70;101699.09;5027629;28;20025;-70
2023/05/21 01:15:13;;;;;;;6.82;3.72;;;;;;;11.78;79.60;101703.94;5028610;28;20037;-70
2023/05/21 01:17:40;;;;;;;6.93;3.80;;;;;;;11.74;80.31;101704.13;5010761;28;20148;-71
2023/05/21 01:20:09;;;;;;;5.40;4.20;;;;;;;11.70;79.44;101707.13;5027164;28;20029;-70
2023/05/21 01:22:38;;;;;;;6.05;4.10;;;;;;;11.69;80.16;101698.09;5025347;28;20045;-70
2023/05/21 01:25:04;;;;;;;6.65;4.07;;;;;;;11.68;81.81;101696.34;5026342;28;20501;-70
2023/05/21 01:27:29;;;;;;;6.72;5.13;;;;;;;11.70;81.11;101697.16;5026433;28;20048;-70
2023/05/21 01:29:55;;;;;;;5.35;4.13;;;;;;;11.69;80.16;101699.94;5009548;28;20014;-70
2023/05/21 01:32:27;;;;;;;6.80;3.90;;;;;;;11.67;79.18;101691.88;5026520;28;20037;-70
2023/05/21 01:35:03;;;;;;;9.13;4.72;;;;;;;11.68;80.86;101698.19;5027615;28;20132;-70
2023/05/21 01:37:35;;;;;;;9.23;4.13;;;;;;;11.70;79.73;101697.16;5026751;28;20615;-70
2023/05/21 01:40:15;;;;;;;6.25;5.07;;;;;;;11.74;80.42;101692.34;5036664;28;20250;-69
2023/05/21 01:42:43;;;;;;;6.32;4.40;;;;;;;11.70;82.08;101696.25;5026791;28;20547;-70
2023/05/21 01:45:10;;;;;;;6.15;4.57;;;;;;;11.70;80.38;101699.88;5026171;28;20052;-70
2023/05/21 01:47:36;;;;;;;6.65;4.70;;;;;;;11.76;80.39;101693.16;5009763;28;20039;-69
2023/05/21 01:50:03;;;;;;;5.57;4.60;;;;;;;11.78;80.36;101691.19;5028120;28;20033;-69
2023/05/21 01:52:29;;;;;;;6.07;4.18;;;;;;;11.81;79.80;101692.84;5045086;28;20041;-70
2023/05/21 01:54:56;;;;;;;8.55;4.88;;;;;;;11.84;81.22;101692.66;5012430;28;20036;-69
2023/05/21 01:57:21;;;;;;;7.32;4.45;;;;;;;11.87;80.30;101687.91;5026973;28;20124;-70
2023/05/21 01:59:47;;;;;;;8.10;4.80;;;;;;;11.88;81.35;101681.47;5025369;28;20183;-70
2023/05/21 02:02:12;;;;;;;5.65;4.60;;;;;;;11.92;80.09;101680.28;5026037;28;20025;-70
2023/05/21 02:04:40;;;;;;;7.10;4.55;;;;;;;11.95;80.77;101681.97;5046956;28;20040;-71
2023/05/21 02:07:06;;;;;;;9.55;4.32;;;;;;;11.97;81.00;101674.53;5037616;28;20088;-70
2023/05/21 02:09:31;;;;;;;6.57;4.63;;;;;;;12.03;80.89;101681.44;5024315;28;20063;-70
2023/05/21 02:11:57;;;;;;;5.35;4.43;;;;;;;12.07;80.68;101674.81;5025477;28;20608;-70
2023/05/21 02:14:24;;;;;;;6.10;5.10;;;;;;;12.11;81.60;101671.78;5025215;28;20056;-70
2023/05/21 02:16:51;;;;;;;6.25;4.72;;;;;;;12.12;80.33;101670.81;5027184;28;20509;-71
2023/05/21 02:19:17;;;;;;;8.65;4.70;;;;;;;12.17;80.49;101673.22;5025308;28;20048;-71
2023/05/21 02:21:42;;;;;;;7.47;4.85;;;;;;;12.22;80.50;101674.69;5009140;28;20430;-70
2023/05/21 02:24:08;;;;;;;7.65;4.65;;;;;;;12.27;80.06;101677.13;5032305;28;20434;-69
2023/05/21 02:26:33;;;;;;;6.90;4.80;;;;;;;12.28;80.60;101670.69;5046346;28;20093;-70
2023/05/21 02:28:59;;;;;;;7.18;5.25;;;;;;;12.32;81.69;101680.41;5027250;28;20065;-69
2023/05/21 02:31:25;;;;;;;8.68;5.55;;;;;;;12.34;82.11;101674.84;5030319;28;20069;-69
2023/05/21 02:33:50;;;;;;;7.38;5.22;;;;;;;12.34;82.14;101675.72;5025032;28;20058;-70
2023/05/21 02:36:17;;;;;;;7.55;4.90;;;;;;;12.37;81.68;101675.53;5027644;28;20051;-69
2023/05/21 02:38:44;;;;;;;7.63;5.20;;;;;;;12.39;82.07;101680.88;5041315;28;20490;-70
2023/05/21 02:41:13;;;;;;;6.90;4.97;;;;;;;12.41;81.97;101682.53;5025542;28;20044;-70
2023/05/21 02:43:38;;;;;;;7.70;4.88;;;;;;;12.45;82.19;101677.72;5040677;28;20033;-70
2023/05/21 02:46:05;;;;;;;7.75;5.40;;;;;;;12.43;82.68;101669.66;5026069;28;20400;-70
2023/05/21 02:48:30;;;;;;;8.00;5.43;;;;;;;12.42;82.59;101661.56;5025002;28;20587;-70
2023/05/21 02:50:57;;;;;;;6.57;5.28;;;;;;;12.45;81.62;101662.25;5024918;28;20372;-70
2023/05/21 02:53:22;;;;;;;7.68;4.93;;;;;;;12.47;83.09;101665.75;5024130;28;20511;-70
2023/05/21 02:55:48;;;;;;;6.07;4.93;;;;;;;12.46;82.49;101666.72;5024639;28;20029;-70
2023/05/21 02:58:13;;;;;;;7.32;5.70;;;;;;;12.46;82.96;101658.53;5024606;28;20555;-70
2023/05/21 03:00:39;;;;;;;6.50;4.90;;;;;;;12.49;83.09;101660.16;5009179;28;20031;-70
2023/05/21 03:03:04;;;;;;;6.85;5.35;;;;;;;12.49;83.23;101655.59;5015066;28;20072;-70
2023/05/21 03:05:30;;;;;;;9.20;4.90;;;;;;;12.51;83.41;101658.22;5044818;28;20574;-70
2023/05/21 03:07:55;;;;;;;8.00;5.18;;;;;;;12.49;83.30;101658.31;5033874;28;20018;-70
2023/05/21 03:10:21;;;;;;;7.72;5.32;;;;;;;12.51;83.29;101655.50;5008057;28;20033;-70
2023/05/21 03:12:46;;;;;;;7.80;6.03;;;;;;;12.47;81.96;101646.63;5022063;28;20406;-70
2023/05/21 03:15:13;;;;;;;6.85;4.97;;;;;;;12.47;83.27;101649.38;5032829;28;20139;-70
2023/05/21 03:17:40;;;;;;;7.78;4.97;;;;;;;12.46;82.69;101647.63;5025192;28;20465;-70
2023/05/21 03:20:07;;;;;;;6.72;5.10;;;;;;;12.45;81.90;101651.34;5009245;28;20358;-70
2023/05/21 03:22:33;;;;;;;7.35;5.20;;;;;;;12.43;83.17;101649.69;5027994;28;20404;-70
2023/05/21 03:25:00;;;;;;;8.80;5.88;;;;;;;12.43;83.45;101644.22;5029554;28;20030;-70
2023/05/21 03:27:26;;;;;;;9.27;5.50;;;;;;;12.42;83.03;101640.63;5028447;28;20048;-69
2023/05/21 03:29:54;;;;;;;6.40;5.35;;;;;;;12.44;84.14;101645.97;5028438;28;20101;-70
2023/05/21 03:32:20;;;;;;;8.85;6.05;;;;;;;12.44;82.49;101635.91;5030088;28;20033;-70
2023/05/21 03:34:47;;;;;;;7.53;5.30;;;;;;;12.46;82.85;101635.84;5028193;28;20414;-69
2023/05/21 03:37:14;;;;;;;8.52;5.50;;;;;;;12.46;82.61;101638.56;5028560;28;20079;-70
2023/05/21 03:39:41;;;;;;;6.65;5.03;;;;;;;12.44;82.52;101629.59;5011217;28;20053;-70
2023/05/21 03:42:06;;;;;;;6.40;5.05;;;;;;;12.49;82.83;101644.66;5012518;28;20476;-70
2023/05/21 03:44:41;;;;;;;6.65;4.47;;;;;;;12.47;81.88;101641.19;5027801;28;20025;-69
2023/05/21 03:47:35;;;;;;;7.68;5.30;;;;;;;12.51;83.12;101641.84;5028555;28;20048;-70
2023/05/21 03:50:04;;;;;;;8.25;5.68;;;;;;;12.54;82.33;101647.09;5038990;28;20052;-70
2023/05/21 03:52:30;;;;;;;6.38;5.00;;;;;;;12.52;81.94;101643.59;5029110;28;20164;-70
2023/05/21 03:54:55;;;;;;;7.97;5.50;;;;;;;12.56;83.75;101649.72;5027908;28;20033;-70
2023/05/21 03:57:21;;;;;;;8.63;5.72;;;;;;;12.55;83.82;101646.13;5013984;28;20143;-70
2023/05/21 03:59:47;;;;;;;7.32;5.28;;;;;;;12.53;83.54;101637.16;5039256;28;20033;-71
2023/05/21 04:02:13;;;;;;;8.75;6.22;;;;;;;12.54;83.89;101635.28;5028078;28;20033;-70
2023/05/21 04:04:38;;;;;;;7.93;5.78;;;;;;;12.51;83.52;101637.25;5028023;28;20076;-71
2023/05/21 04:07:04;;;;;;;8.20;5.82;;;;;;;12.52;84.34;101643.59;5033064;28;20040;-70
2023/05/21 04:09:29;;;;;;;7.38;5.57;;;;;;;12.51;83.74;101645.44;5046526;28;20055;-70
2023/05/21 04:11:56;;;;;;;8.45;5.95;;;;;;;12.51;84.18;101656.38;5047692;28;20068;-70
2023/05/21 04:14:22;;;;;;;7.97;5.80;;;;;;;12.52;84.41;101646.31;5042549;28;20065;-70
2023/05/21 04:16:49;;;;;;;7.22;5.70;;;;;;;12.51;83.89;101647.31;5027955;28;20496;-70
2023/05/21 04:19:15;;;;;;;10.02;5.80;;;;;;;12.51;84.19;101645.44;5027326;28;20029;-70
2023/05/21 04:21:43;;;;;;;7.65;5.53;;;;;;;12.52;82.48;101652.66;5028195;28;20033;-70
2023/05/21 04:24:10;;;;;;;8.75;5.85;;;;;;;12.53;84.10;101642.63;5027325;28;20103;-70
2023/05/21 04:26:46;;;;;;;6.80;5.88;;;;;;;12.54;82.79;101648.94;5012650;28;20025;-70
2023/05/21 04:29:12;;;;;;;9.27;5.43;;;;;;;12.55;82.56;101648.84;5026960;28;20556;-70
2023/05/21 04:31:37;;;;;;;7.00;5.45;;;;;;;12.56;82.37;101656.06;5027146;28;20021;-69
2023/05/21 04:34:03;;;;;;;8.50;5.68;;;;;;;12.58;84.60;101655.94;5026782;28;20084;-69
2023/05/21 04:36:29;;;;;;;10.55;6.00;;;;;;;12.56;84.57;101647.88;5027397;28;20592;-70
2023/05/21 04:38:55;;;;;;;12.30;6.43;;;;;;;12.56;85.33;101647.88;5009863;28;20151;-70
2023/05/21 04:41:21;;;;;;;10.30;7.60;;;;;;;12.60;85.37;101651.28;5010310;28;20164;-69
2023/05/21 04:43:46;;;;;;;7.45;6.68;;;;;;;12.60;85.28;101648.53;5010413;28;20036;-71
2023/05/21 04:46:13;;;;;;;9.50;6.63;;;;;;;12.63;84.26;101645.59;5027331;28;20029;-70
2023/05/21 04:48:39;;;;;;;9.40;6.85;;;;;;;12.65;85.59;101657.28;5027557;28;20057;-70
2023/05/21 04:51:07;;;;;;;8.05;6.28;;;;;;;12.68;85.10;101654.34;5029057;28;20072;-70
2023/05/21 04:53:34;;;;;;;9.65;6.53;;;;;;;12.69;85.07;101658.84;5026136;28;20476;-70
2023/05/21 04:56:00;;;;;;;9.68;6.78;;;;;;;12.73;85.22;101654.94;5026608;28;20025;-70
2023/05/21 04:58:26;;;;;;;11.23;6.38;;;;;;;12.73;84.94;101654.94;5026512;28;20037;-70
2023/05/21 05:00:52;;;;;;;8.25;6.45;;;;;;;12.76;84.48;101651.97;5026780;28;20356;-69
2023/05/21 05:03:18;;;;;;;8.68;6.47;;;;;;;12.76;85.13;101661.03;5031777;28;20029;-70
2023/05/21 05:05:44;;;;;;;8.77;6.30;;;;;;;12.80;83.58;101656.22;5026441;28;20044;-70
2023/05/21 05:08:11;;;;;;;8.18;6.28;;;;;;;12.87;84.38;101662.13;5026128;28;20036;-70
2023/05/21 05:10:36;;;;;;;9.80;6.75;;;;;;;12.90;84.60;101665.53;5026831;28;20485;-69
2023/05/21 05:13:02;;;;;;;8.52;6.50;;;;;;;12.91;84.85;101664.53;5028113;28;20409;-69
2023/05/21 05:15:28;;;;;;;9.30;6.60;;;;;;;12.92;84.97;101658.13;5026474;28;20370;-69
2023/05/21 05:17:55;;;;;;;10.45;6.05;;;;;;;12.93;84.57;101657.13;5026711;28;20045;-69
2023/05/21 05:20:20;;;;;;;10.02;6.65;;;;;;;12.95;84.96;101649.69;5026492;28;20029;-70
2023/05/21 05:22:46;;;;;;;12.35;7.03;;;;;;;12.93;85.22;101646.22;5027376;28;20038;-69
2023/05/21 05:25:11;;;;;;;10.35;6.90;;;;;;;12.99;84.00;101644.91;5026303;28;20439;-70
2023/05/21 05:27:37;;;;;;;9.85;6.55;;;;;;;13.05;84.98;101643.59;5026683;28;20033;-70
2023/05/21 05:30:03;;;;;;;10.70;7.25;;;;;;;13.07;84.75;101664.38;5026303;28;20030;-70
2023/05/21 05:32:30;;;;;;;10.05;6.75;;;;;;;13.08;85.46;101648.84;5026202;28;20485;-70
2023/05/21 05:34:55;;;;;;;11.00;7.28;;;;;;;13.11;84.99;101652.25;5022675;28;20067;-70
2023/05/21 05:37:20;;;;;;;10.07;7.10;;;;;;;13.14;84.55;101654.75;5027858;28;20028;-70
2023/05/21 05:39:46;;;;;;;10.63;6.95;;;;;;;13.20;85.01;101661.66;5024275;28;20037;-69
2023/05/21 05:42:12;;;;;;;10.45;7.10;;;;;;;13.26;84.77;101650.31;5026028;28;20374;-70
2023/05/21 05:44:37;;;;;;;9.88;6.63;;;;;;;13.37;83.27;101658.63;5026838;28;20021;-69
2023/05/21 05:47:07;;;;;;;9.77;6.72;;;;;;;13.46;83.81;101652.50;5040037;28;20508;-70
2023/05/21 05:49:33;;;;;;;10.90;6.78;;;;;;;13.55;82.39;101659.19;5045581;28;20029;-70
2023/05/21 05:51:59;;;;;;;10.23;6.82;;;;;;;13.58;83.39;101656.22;5042444;28;20052;-70
2023/05/21 05:54:25;;;;;;;10.60;7.10;;;;;;;13.63;83.35;101643.09;5024499;28;20454;-70
2023/05/21 05:56:50;;;;;;;12.32;7.38;;;;;;;13.69;83.88;101653.56;4986534;28;71177;-70
2023/05/21 05:59:16;;;;;;;12.23;7.88;;;;;;;13.74;83.58;101648.66;4988430;28;68616;-70
2023/05/21 06:01:46;;;;;;;11.43;7.35;;;;;;;13.82;83.09;101659.03;5001543;28;20103;-70
2023/05/21 06:04:11;;;;;;;8.45;6.57;;;;;;;13.90;82.04;101651.16;5005319;28;20418;-70
2023/05/21 06:06:37;;;;;;;10.15;7.05;;;;;;;14.03;82.15;101662.94;5022579;28;20041;-70
2023/05/21 06:09:02;;;;;;;11.45;7.68;;;;;;;14.12;81.35;101663.22;5021358;28;20029;-70
2023/05/21 06:11:28;;;;;;;10.63;7.43;;;;;;;14.16;81.63;101660.16;5005554;28;20044;-70
2023/05/21 06:13:53;;;;;;;10.82;6.75;;;;;;;14.20;81.80;101660.81;5000715;28;20036;-70
2023/05/21 06:16:20;;;;;;;11.13;7.63;;;;;;;14.28;82.71;101653.78;5005926;28;20045;-70
2023/05/21 06:18:45;;;;;;;11.95;7.38;;;;;;;14.37;81.40;101649.47;5005388;28;20472;-70
2023/05/21 06:21:11;;;;;;;10.20;7.38;;;;;;;14.43;80.72;101650.84;5007811;28;20042;-70
2023/05/21 06:23:37;;;;;;;9.55;7.50;;;;;;;14.48;80.49;101646.81;5012984;28;20030;-70
2023/05/21 06:26:03;;;;;;;9.75;7.47;;;;;;;14.54;80.78;101656.41;4990873;28;20387;-69
2023/05/21 06:28:28;;;;;;;10.30;7.10;;;;;;;14.76;79.48;101652.91;5024915;28;20040;-70
2023/05/21 06:30:54;;;;;;;7.80;6.78;;;;;;;14.96;80.37;101663.19;5007049;28;20029;-70
2023/05/21 06:33:20;;;;;;;9.70;7.18;;;;;;;15.04;79.31;101647.03;5005494;28;20121;-70
2023/05/21 06:35:45;;;;;;;10.05;6.78;;;;;;;15.06;78.19;101652.38;5005689;28;20093;-69
2023/05/21 06:38:11;;;;;;;11.55;6.82;;;;;;;15.01;78.19;101644.53;5007067;28;20128;-70
2023/05/21 06:40:36;;;;;;;12.35;7.25;;;;;;;15.01;78.61;101652.78;5026973;28;20025;-69
2023/05/21 06:43:03;;;;;;;10.15;7.20;;;;;;;15.10;78.88;101648.41;5022672;28;20038;-69
2023/05/21 06:45:38;;;;;;;8.95;7.07;;;;;;;15.17;78.71;101641.47;5006554;28;20030;-69
2023/05/21 06:48:26;;;;;;;11.40;7.32;;;;;;;15.39;79.26;101646.13;5008317;28;20052;-69
2023/05/21 06:50:52;;;;;;;10.15;7.35;;;;;;;15.44;78.13;101649.38;5006755;28;20406;-69
2023/05/21 06:53:17;;;;;;;11.88;7.43;;;;;;;15.45;78.80;101659.31;5007433;28;20069;-69
2023/05/21 06:55:44;;;;;;;12.07;6.78;;;;;;;15.43;76.86;101649.47;5004227;28;20030;-69
2023/05/21 06:58:20;;;;;;;10.23;7.55;;;;;;;15.34;77.29;101644.72;5005093;28;20030;-70
2023/05/21 07:00:49;;;;;;;13.73;8.02;;;;;;;15.42;77.50;101653.22;5016094;28;20084;-69
2023/05/21 07:03:14;;;;;;;12.65;6.63;;;;;;;15.43;76.79;101641.22;5007805;28;20389;-73
2023/05/21 07:05:40;;;;;;;10.88;7.32;;;;;;;15.59;77.50;101639.03;5021723;28;20045;-72
2023/05/21 07:08:06;;;;;;;10.40;8.05;;;;;;;15.78;76.88;101632.94;5021156;28;20040;-72
2023/05/21 07:10:31;;;;;;;10.43;7.60;;;;;;;15.82;75.54;101632.56;5005853;28;20038;-72
2023/05/21 07:12:57;;;;;;;12.60;7.65;;;;;;;15.88;76.52;101633.94;5006721;28;20037;-72
2023/05/21 07:15:22;;;;;;;11.38;7.35;;;;;;;15.93;74.06;101633.53;5005238;28;20041;-72
2023/05/21 07:17:47;;;;;;;10.63;6.97;;;;;;;15.98;75.80;101629.41;5005148;28;20041;-72
2023/05/21 07:20:13;;;;;;;9.13;6.63;;;;;;;16.00;75.57;101632.91;5005118;28;20033;-72
2023/05/21 07:22:42;;;;;;;15.20;7.70;;;;;;;15.93;74.49;101626.19;5004648;28;20109;-72
2023/05/21 07:25:09;;;;;;;10.93;8.05;;;;;;;16.00;75.92;101624.69;5020308;28;20133;-72
2023/05/21 07:27:34;;;;;;;9.63;7.72;;;;;;;16.09;75.28;101628.53;5022864;28;20104;-72
2023/05/21 07:30:00;;;;;;;10.95;7.35;;;;;;;16.31;76.15;101627.59;4996496;28;20084;-73
2023/05/21 07:32:27;;;;;;;9.82;7.30;;;;;;;16.47;75.24;101632.69;5024615;28;20478;-72
2023/05/21 07:34:53;;;;;;;11.32;7.15;;;;;;;16.72;75.62;101632.34;5024388;28;20045;-72
2023/05/21 07:37:19;;;;;;;14.52;8.30;;;;;;;16.85;72.91;101629.44;5024682;28;20033;-73
2023/05/21 07:39:45;;;;;;;9.45;7.88;;;;;;;16.93;72.89;101626.91;5022166;28;20081;-72
2023/05/21 07:42:11;;;;;;;9.45;7.60;;;;;;;16.96;72.73;101628.50;5024899;28;20540;-72
2023/05/21 07:44:37;;;;;;;12.18;8.82;;;;;;;16.88;72.74;101620.94;5003726;28;20419;-72
2023/05/21 07:47:02;;;;;;;11.43;8.35;;;;;;;16.86;73.85;101617.44;5004754;28;20037;-72
2023/05/21 07:49:28;;;;;;;11.30;8.57;;;;;;;17.13;73.48;101621.53;5004683;28;20122;-72
2023/05/21 07:51:53;;;;;;;11.25;8.13;;;;;;;17.33;72.62;101615.13;5027267;28;20509;-72
2023/05/21 07:54:19;;;;;;;12.35;8.52;;;;;;;17.39;72.75;101617.31;5002306;28;20061;-72
2023/05/21 07:56:44;;;;;;;14.35;7.95;;;;;;;17.72;73.44;101612.56;5018692;28;20037;-72
2023/05/21 07:59:20;;;;;;;12.38;8.88;;;;;;;17.99;72.91;101623.84;5006577;28;20121;-71
2023/05/21 08:01:46;;;;;;;10.70;8.32;;;;;;;17.97;68.53;101619.50;5017006;28;20116;-73
2023/05/21 08:04:11;;;;;;;12.73;7.95;;;;;;;17.95;70.03;101621.50;5013389;28;20064;-72
2023/05/21 08:06:36;;;;;;;12.75;8.50;;;;;;;17.87;68.44;101627.75;5020103;28;20374;-72
2023/05/21 08:09:02;;;;;;;12.32;8.43;;;;;;;17.91;69.81;101623.69;5016008;28;20088;-73
2023/05/21 08:11:28;;;;;;;11.25;8.23;;;;;;;18.35;70.59;101610.44;5019872;28;20022;-72
2023/05/21 08:13:55;;;;;;;10.02;8.20;;;;;;;19.02;70.76;101619.75;5014629;28;20071;-71
2023/05/21 08:16:22;;;;;;;9.20;7.80;;;;;;;19.29;67.01;101617.09;5007260;28;20124;-72
2023/05/21 08:18:48;;;;;;;11.07;8.15;;;;;;;19.45;66.09;101610.97;4991144;28;20034;-72
2023/05/21 08:21:13;;;;;;;13.23;8.60;;;;;;;19.15;64.10;101611.19;5008001;28;20056;-72
2023/05/21 08:23:39;;;;;;;10.25;8.25;;;;;;;19.26;66.05;101616.56;5010091;28;20029;-72
2023/05/21 08:26:05;;;;;;;11.38;8.02;;;;;;;19.67;65.73;101606.13;5026035;28;20071;-71
2023/05/21 08:28:31;;;;;;;10.45;8.18;;;;;;;19.87;62.92;101613.31;5025900;28;20037;-72
2023/05/21 08:30:58;;;;;;;11.60;8.65;;;;;;;19.51;62.30;101615.88;5025062;28;20037;-71
2023/05/21 08:33:24;;;;;;;12.75;8.65;;;;;;;19.37;63.17;101610.84;5013326;28;20377;-71
2023/05/21 08:35:49;;;;;;;12.27;8.35;;;;;;;19.40;63.70;101604.13;5007177;28;20471;-71
2023/05/21 08:38:17;;;;;;;11.70;8.50;;;;;;;19.75;64.69;101604.34;5012848;28;20034;-72
2023/05/21 08:40:53;;;;;;;11.25;8.55;;;;;;;20.09;64.56;101593.53;5018626;28;20126;-71
2023/05/21 08:43:19;;;;;;;11.32;8.63;;;;;;;20.48;63.15;101595.22;5016170;28;20452;-72
2023/05/21 08:45:53;;;;;;;11.68;8.60;;;;;;;20.19;60.12;101593.50;5016192;28;20125;-72
2023/05/21 08:48:21;;;;;;;10.30;8.45;;;;;;;20.14;63.96;101590.31;5025749;28;20041;-71
2023/05/21 08:50:49;;;;;;;10.50;8.05;;;;;;;20.48;64.14;101592.44;5014133;28;20456;-71
2023/05/21 08:53:22;;;;;;;13.13;8.77;;;;;;;20.73;60.99;101599.06;5013424;28;20461;-71
2023/05/21 08:55:51;;;;;;;12.55;8.95;;;;;;;20.59;59.11;101600.50;5016067;28;20406;-71
2023/05/21 08:58:17;;;;;;;10.13;8.20;;;;;;;20.99;62.93;101599.13;5018941;28;20022;-71
2023/05/21 09:00:43;;;;;;;12.93;8.13;;;;;;;21.42;61.89;101591.84;5008773;28;20036;-71
2023/05/21 09:03:11;;;;;;;13.63;8.02;;;;;;;21.83;59.55;101584.63;5010482;28;20053;-71
2023/05/21 09:05:39;;;;;;;11.13;8.02;;;;;;;21.82;56.74;101588.41;4998123;28;20564;-71
2023/05/21 09:08:10;;;;;;;9.20;7.38;;;;;;;21.90;58.28;101592.09;5006191;28;20036;-71
2023/05/21 09:10:50;;;;;;;12.68;8.77;;;;;;;21.80;56.74;101596.88;5021993;28;20196;-71
2023/05/21 09:13:18;;;;;;;10.15;8.50;;;;;;;21.94;57.35;101595.41;5014103;28;20034;-71
2023/05/21 09:15:45;;;;;;;12.95;7.97;;;;;;;21.84;58.76;101595.53;5007726;28;20113;-72
2023/05/21 09:18:12;;;;;;;12.35;8.32;;;;;;;21.80;59.06;101594.13;5021263;28;20042;-71
2023/05/21 09:21:24;;;;;;;11.50;8.43;;;;;;;22.44;58.80;101589.00;5018922;28;20519;-72
2023/05/21 09:23:56;;;;;;;12.48;7.88;;;;;;;22.70;58.94;101591.59;5022808;28;20508;-70
2023/05/21 09:26:22;;;;;;;13.18;7.97;;;;;;;23.01;57.48;101589.06;5014721;28;20470;-71
2023/05/21 09:28:51;;;;;;;10.48;8.20;;;;;;;22.99;54.03;101591.16;5025410;28;20568;-71
2023/05/21 09:31:17;;;;;;;11.98;7.07;;;;;;;23.16;57.56;101591.97;5024405;28;20485;-71
2023/05/21 09:33:46;;;;;;;10.57;8.20;;;;;;;22.89;56.34;101594.06;5001879;28;20056;-71
2023/05/21 09:36:13;;;;;;;16.48;8.38;;;;;;;22.87;55.96;101590.59;5008701;28;20041;-71
2023/05/21 09:38:38;;;;;;;8.82;7.43;;;;;;;23.00;57.22;101580.91;5024023;28;20034;-71
2023/05/21 09:41:05;;;;;;;9.75;8.45;;;;;;;23.42;56.96;101581.53;5025091;28;20029;-71
2023/05/21 09:43:31;;;;;;;11.85;8.82;;;;;;;23.45;56.12;101582.22;5023771;28;20530;-71
2023/05/21 09:45:56;;;;;;;11.25;7.93;;;;;;;23.44;55.75;101575.78;5015233;28;20026;-71
2023/05/21 09:48:32;;;;;;;10.60;8.63;;;;;;;23.38;54.98;101573.72;5010934;28;20104;-71
2023/05/21 09:51:14;;;;;;;11.95;8.95;;;;;;;23.14;54.51;101569.09;5020031;28;20037;-71
2023/05/21 09:53:44;;;;;;;14.60;9.20;;;;;;;23.12;53.93;101571.16;5025895;28;20563;-71
2023/05/21 09:56:09;;;;;;;12.82;8.90;;;;;;;22.73;53.48;101582.09;5023175;28;20032;-71
2023/05/21 09:58:35;;;;;;;14.85;10.00;;;;;;;22.57;55.97;101569.94;5023622;28;20124;-70
2023/05/21 10:01:00;;;;;;;12.65;9.05;;;;;;;22.72;57.05;101572.03;5016731;28;20080;-71
2023/05/21 10:03:27;;;;;;;12.77;8.98;;;;;;;22.36;54.95;101570.44;5024407;28;20045;-71
2023/05/21 10:05:54;;;;;;;13.50;8.18;;;;;;;22.52;59.84;101568.72;5023450;28;20119;-71
2023/05/21 10:08:24;;;;;;;14.77;8.57;;;;;;;23.05;57.62;101570.16;5018698;28;20117;-71
2023/05/21 10:10:50;;;;;;;11.00;7.93;;;;;;;23.34;55.35;101559.31;5007535;28;20038;-71
2023/05/21 10:13:20;;;;;;;13.05;9.63;;;;;;;23.46;57.36;101564.53;5006701;28;20033;-71
2023/05/21 10:15:53;;;;;;;14.00;9.07;;;;;;;23.83;54.78;101555.56;5007320;28;20042;-71
2023/05/21 10:18:21;;;;;;;12.77;10.70;;;;;;;23.68;53.67;101550.72;5005835;28;20053;-71
2023/05/21 10:20:46;;;;;;;14.88;10.13;;;;;;;23.71;51.47;101552.31;5006845;28;20390;-71
2023/05/21 10:23:12;;;;;;;15.88;10.95;;;;;;;23.35;52.55;101544.38;5006793;28;20026;-71
2023/05/21 10:25:38;;;;;;;14.50;9.98;;;;;;;23.38;52.97;101548.75;5007241;28;20042;-70
2023/05/21 10:28:05;;;;;;;15.27;10.18;;;;;;;22.89;52.90;101555.22;5006447;28;20064;-70
2023/05/21 10:30:31;;;;;;;14.93;10.18;;;;;;;22.56;54.98;101545.13;5006046;28;20295;-71
2023/05/21 10:32:58;;;;;;;15.05;10.20;;;;;;;22.70;56.01;101551.91;5005850;28;20112;-70
2023/05/21 10:35:23;;;;;;;16.95;8.90;;;;;;;22.88;57.75;101542.38;5006844;28;20834;-71
2023/05/21 10:37:50;;;;;;;14.38;10.90;;;;;;;23.02;57.45;101534.41;4988135;28;20038;-71
2023/05/21 10:40:16;;;;;;;14.45;10.15;;;;;;;23.16;57.99;101530.91;5006433;28;20103;-71
2023/05/21 10:42:59;;;;;;;15.77;10.80;;;;;;;23.11;53.55;101530.56;5011886;28;20034;-71
2023/05/21 10:45:36;;;;;;;14.90;10.30;;;;;;;22.98;55.35;101522.78;5006333;28;20407;-71
2023/05/21 10:48:20;;;;;;;14.40;9.50;;;;;;;23.17;56.51;101519.66;5004500;28;20107;-71
2023/05/21 10:51:06;;;;;;;14.68;10.30;;;;;;;23.55;56.28;101525.44;5005835;28;20034;-71
2023/05/21 10:54:01;;;;;;;19.33;11.00;;;;;;;23.53;53.64;101527.50;5004462;28;20156;-71
2023/05/21 10:56:43;;;;;;;13.65;10.27;;;;;;;23.35;56.10;101510.19;5006642;28;20128;-70
2023/05/21 10:59:46;;;;;;;13.10;10.25;;;;;;;23.71;56.72;101509.75;5007148;28;20447;-71
2023/05/21 11:02:13;;;;;;;14.40;10.77;;;;;;;23.86;52.23;101506.00;5006893;28;20160;-71
2023/05/21 11:04:42;;;;;;;16.33;10.73;;;;;;;23.98;53.85;101506.47;5026333;28;20048;-70
2023/05/21 11:07:07;;;;;;;15.20;10.88;;;;;;;24.06;55.17;101505.53;5013816;28;20029;-71
2023/05/21 11:09:33;;;;;;;14.38;10.48;;;;;;;24.23;53.99;101497.97;5005262;28;20045;-71
2023/05/21 11:12:00;;;;;;;14.10;9.85;;;;;;;24.43;54.56;101491.78;5006327;28;20453;-71
2023/05/21 11:14:35;;;;;;;13.38;9.93;;;;;;;25.28;53.45;101486.97;5006058;28;21143;-71
2023/05/21 11:17:14;;;;;;;16.73;12.27;;;;;;;24.97;49.77;101495.44;5004903;28;20163;-71
2023/05/21 11:19:50;;;;;;;15.77;10.48;;;;;;;25.14;50.65;101486.78;5006730;28;20115;-71
2023/05/21 11:22:22;;;;;;;16.67;10.27;;;;;;;25.47;51.84;101479.94;5005570;28;20394;-71
2023/05/21 11:24:49;;;;;;;15.82;11.60;;;;;;;25.51;50.34;101479.38;5007528;28;20048;-71